Malmstrom A F B, Montana
Current Conditions -  °F | °C
As of 10:56 AM on Thursday 29 Jan 2015 (Local Time) from KGFA Reporting Station
Clear Clear  
Wind Chill: 36°   Ceiling: Unl
Heat Index: 42°   Visibility: 10mi
Dew Point: 29°   Wind: 9mph
Humidity: 60%   Direction: 230°SW
Pressure: 30.32"   Gusts: NA
Location:  47.5102°N, 111.1959°W
Report Text: KGFA 291756Z AUTO 23008KT 10SM CLR 05/M02 A3032 RMK AO2 SLP301 T00531018 10053 21051 57006
Loading
Personal Weather Stations






























Interactive Weather Map New forecast layout! Learn more

10-Day Weather Forecast

Advertisements
Track Severe Weather on mobile